createdAt,value
2018-04-10T00:01:31.616Z,54.30
2018-04-10T00:03:59.901Z,52.70
2018-04-10T00:06:28.194Z,53.20
2018-04-10T00:08:56.466Z,55.80
2018-04-10T00:11:24.781Z,53.40
2018-04-10T00:13:53.061Z,51.70
2018-04-10T00:16:21.355Z,49.70
2018-04-10T00:18:49.586Z,53.20
2018-04-10T00:21:17.893Z,54.20
2018-04-10T00:23:46.172Z,55.20
2018-04-10T00:26:14.474Z,55.50
2018-04-10T00:28:43.540Z,54.00
2018-04-10T00:31:11.767Z,53.40
2018-04-10T00:33:40.032Z,55.70
2018-04-10T00:36:08.288Z,55.70
2018-04-10T00:38:36.588Z,54.70
2018-04-10T00:41:05.592Z,57.10
2018-04-10T00:43:33.890Z,57.10
2018-04-10T00:46:02.174Z,57.60
2018-04-10T00:48:30.474Z,57.50
2018-04-10T00:50:58.746Z,57.40
2018-04-10T00:53:36.055Z,53.50
2018-04-10T00:56:04.333Z,54.20
2018-04-10T00:58:32.647Z,53.90
2018-04-10T01:01:00.886Z,54.10
2018-04-10T01:03:29.148Z,54.70
2018-04-10T01:05:57.427Z,55.70
2018-04-10T01:08:25.716Z,53.20
2018-04-10T01:10:53.964Z,54.70
2018-04-10T01:13:22.268Z,55.30
2018-04-10T01:15:50.581Z,57.10
2018-04-10T01:18:19.583Z,57.00
2018-04-10T01:20:47.885Z,56.90
2018-04-10T01:23:16.168Z,57.60
2018-04-10T01:25:44.475Z,57.00
2018-04-10T01:28:12.707Z,56.60
2018-04-10T01:30:40.972Z,57.30
2018-04-10T01:33:09.257Z,55.80
2018-04-10T01:35:37.557Z,58.60
2018-04-10T01:38:05.796Z,56.90
2018-04-10T01:40:34.098Z,60.10
2018-04-10T01:43:02.371Z,58.10
2018-04-10T01:45:30.649Z,57.90
2018-04-10T01:47:58.896Z,57.60
2018-04-10T01:50:27.938Z,52.40
2018-04-10T01:52:56.228Z,52.40
2018-04-10T01:55:24.463Z,56.10
2018-04-10T01:57:52.723Z,53.40
2018-04-10T02:00:21.726Z,55.00
2018-04-10T02:02:50.020Z,55.20
2018-04-10T02:05:18.287Z,53.70
2018-04-10T02:07:46.580Z,54.70
2018-04-10T02:10:32.549Z,54.70
2018-04-10T02:15:34.405Z,54.00
2018-04-10T02:18:03.426Z,58.60
2018-04-10T02:20:31.717Z,59.40
2018-04-10T02:22:59.960Z,59.10
2018-04-10T02:25:28.965Z,58.50
2018-04-10T02:27:58.027Z,59.80
2018-04-10T02:30:26.260Z,59.60
2018-04-10T02:32:54.550Z,59.10
2018-04-10T02:35:22.772Z,57.60
2018-04-10T02:37:51.782Z,58.80
2018-04-10T02:40:20.783Z,58.70
2018-04-10T02:42:49.035Z,58.70
2018-04-10T02:45:17.313Z,58.80
2018-04-10T02:47:45.612Z,58.50
2018-04-10T02:50:14.651Z,57.00
2018-04-10T02:52:42.890Z,57.00
2018-04-10T02:55:11.173Z,57.40
2018-04-10T02:57:39.453Z,60.50
2018-04-10T03:00:07.725Z,60.00
2018-04-10T03:02:35.982Z,58.40
2018-04-10T03:05:05.030Z,58.50
2018-04-10T03:07:33.300Z,58.40
2018-04-10T03:10:01.568Z,58.50
2018-04-10T03:12:29.841Z,60.60
2018-04-10T03:14:58.098Z,58.70
2018-04-10T03:17:26.336Z,59.60
2018-04-10T03:19:54.623Z,57.60
2018-04-10T03:22:22.916Z,58.30
2018-04-10T03:24:51.910Z,60.90
2018-04-10T03:27:20.986Z,59.40
2018-04-10T03:29:50.729Z,60.20
2018-04-10T03:32:19.771Z,60.50
2018-04-10T03:34:48.073Z,60.30
2018-04-10T03:37:16.335Z,59.20
2018-04-10T03:39:44.626Z,59.40
2018-04-10T03:42:12.898Z,59.50
2018-04-10T03:44:41.151Z,60.90
2018-04-10T03:47:09.398Z,59.90
2018-04-10T03:49:37.702Z,60.00
2018-04-10T03:52:05.931Z,59.10
2018-04-10T03:54:34.931Z,59.40
2018-04-10T03:57:03.226Z,59.40
2018-04-10T03:59:31.466Z,60.90
2018-04-10T04:02:00.523Z,55.90
2018-04-10T04:04:28.763Z,55.90
2018-04-10T04:06:57.006Z,55.30
2018-04-10T04:09:25.288Z,59.90
2018-04-10T04:11:54.283Z,61.40
2018-04-10T04:14:22.528Z,61.40
2018-04-10T04:17:02.755Z,59.50
2018-04-10T04:19:42.740Z,61.60
2018-04-10T04:22:22.816Z,61.90
2018-04-10T04:24:52.020Z,61.80
2018-04-10T04:27:20.293Z,60.40
2018-04-10T04:29:48.565Z,61.10
2018-04-10T04:32:17.181Z,62.00
2018-04-10T04:34:46.251Z,63.70
2018-04-10T04:37:16.050Z,61.30
2018-04-10T04:39:44.290Z,61.20
2018-04-10T04:42:12.526Z,62.60
2018-04-10T04:44:41.534Z,64.50
2018-04-10T04:47:10.531Z,61.10
2018-04-10T04:49:38.811Z,61.10
2018-04-10T04:52:07.879Z,63.20
2018-04-10T04:54:36.152Z,63.20
2018-04-10T04:57:04.390Z,64.00
2018-04-10T04:59:32.683Z,62.00
2018-04-10T05:02:00.907Z,60.20
2018-04-10T05:04:29.919Z,57.40
2018-04-10T05:06:58.158Z,57.30
2018-04-10T05:09:27.304Z,57.70
2018-04-10T05:11:55.539Z,57.20
2018-04-10T05:14:24.604Z,58.40
2018-04-10T05:16:52.831Z,58.50
2018-04-10T05:19:21.112Z,62.90
2018-04-10T05:21:49.347Z,60.10
2018-04-10T05:24:17.595Z,59.00
2018-04-10T05:26:45.884Z,59.50
2018-04-10T05:29:14.122Z,60.10
2018-04-10T05:31:42.425Z,60.10
2018-04-10T05:34:10.659Z,60.90
2018-04-10T05:36:39.677Z,60.60
2018-04-10T05:39:07.916Z,60.60
2018-04-10T05:41:36.154Z,62.00
2018-04-10T05:44:04.391Z,60.00
2018-04-10T05:46:32.700Z,61.40
2018-04-10T05:49:00.969Z,62.50
2018-04-10T05:51:29.237Z,59.00
2018-04-10T05:53:57.510Z,58.40
2018-04-10T05:56:25.777Z,57.40
2018-04-10T05:58:54.069Z,59.50
2018-04-10T06:01:22.347Z,58.00
2018-04-10T06:03:50.580Z,61.40
2018-04-10T06:06:19.588Z,56.70
2018-04-10T06:08:48.641Z,55.90
2018-04-10T06:11:16.894Z,55.80
2018-04-10T06:13:45.165Z,57.80
2018-04-10T06:16:13.438Z,57.80
2018-04-10T06:18:41.686Z,59.60
2018-04-10T06:21:10.729Z,60.90
2018-04-10T06:23:39.020Z,60.80
2018-04-10T06:26:07.294Z,62.20
2018-04-10T06:28:35.526Z,63.00
2018-04-10T06:31:04.535Z,62.70
2018-04-10T06:33:32.772Z,62.70
2018-04-10T06:36:01.066Z,63.50
2018-04-10T06:38:30.254Z,59.40
2018-04-10T06:40:59.279Z,58.80
2018-04-10T06:43:27.573Z,58.80
2018-04-10T06:45:56.761Z,57.00
2018-04-10T06:48:25.041Z,56.50
2018-04-10T06:50:53.345Z,57.50
2018-04-10T06:53:21.625Z,56.80
2018-04-10T06:55:49.891Z,59.80
2018-04-10T06:58:18.184Z,60.30
2018-04-10T07:00:46.418Z,58.30
2018-04-10T07:03:14.709Z,59.30
2018-04-10T07:05:42.997Z,58.60
2018-04-10T07:08:11.254Z,58.40
2018-04-10T07:10:39.557Z,60.20
2018-04-10T07:13:08.521Z,58.90
2018-04-10T07:15:36.815Z,58.90
2018-04-10T07:18:05.090Z,59.60
2018-04-10T07:20:33.377Z,57.40
2018-04-10T07:23:01.607Z,55.80
2018-04-10T07:25:30.681Z,54.80
2018-04-10T07:27:58.969Z,54.80
2018-04-10T07:30:28.015Z,56.90
2018-04-10T07:32:56.309Z,56.80
2018-04-10T07:35:24.541Z,59.10
2018-04-10T07:37:52.815Z,58.70
2018-04-10T07:40:21.104Z,58.90
2018-04-10T07:42:49.367Z,58.10
2018-04-10T07:45:18.384Z,57.90
2018-04-10T07:47:46.666Z,57.90
2018-04-10T07:50:14.956Z,58.00
2018-04-10T07:52:43.191Z,57.50
2018-04-10T07:55:11.486Z,56.00
2018-04-10T07:57:39.732Z,57.40
2018-04-10T08:00:08.033Z,58.40
2018-04-10T08:02:36.307Z,57.30
2018-04-10T08:05:05.313Z,55.80
2018-04-10T08:07:33.614Z,55.80
2018-04-10T08:10:01.893Z,55.10
2018-04-10T08:12:30.129Z,55.10
2018-04-10T08:14:58.432Z,54.90
2018-04-10T08:17:26.721Z,55.20
2018-04-10T08:19:55.008Z,56.20
2018-04-10T08:22:23.379Z,54.90
2018-04-10T08:24:51.664Z,55.40
2018-04-10T08:27:19.959Z,54.80
2018-04-10T08:29:49.697Z,54.50
2018-04-10T08:32:18.770Z,54.60
2018-04-10T08:34:47.006Z,54.50
2018-04-10T08:37:15.252Z,54.40
2018-04-10T08:39:44.301Z,53.60
2018-04-10T08:42:12.574Z,53.70
2018-04-10T08:44:40.825Z,53.90
2018-04-10T08:47:09.068Z,54.40
2018-04-10T08:49:38.083Z,54.00
2018-04-10T08:52:06.330Z,54.00
2018-04-10T08:54:35.395Z,53.50
2018-04-10T08:57:03.635Z,53.50
2018-04-10T08:59:31.927Z,53.10
2018-04-10T09:02:00.219Z,52.80
2018-04-10T09:04:28.494Z,52.70
2018-04-10T09:06:56.793Z,52.60
2018-04-10T09:09:25.074Z,52.70
2018-04-10T09:11:53.323Z,52.90
2018-04-10T09:14:21.580Z,52.50
2018-04-10T09:16:49.857Z,52.40
2018-04-10T09:19:18.155Z,52.70
2018-04-10T09:21:46.464Z,52.50
2018-04-10T09:24:14.698Z,52.30
2018-04-10T09:26:42.955Z,52.10
2018-04-10T09:29:11.198Z,52.10
2018-04-10T09:31:40.253Z,52.10
2018-04-10T09:34:08.501Z,52.10
2018-04-10T09:36:36.790Z,52.20
2018-04-10T09:39:05.096Z,52.70
2018-04-10T09:41:33.324Z,51.80
2018-04-10T09:44:01.611Z,51.90
2018-04-10T09:46:29.867Z,51.70
2018-04-10T09:48:58.922Z,51.50
2018-04-10T09:51:27.172Z,51.40
2018-04-10T09:53:55.478Z,51.40
2018-04-10T09:56:23.765Z,50.20
2018-04-10T09:58:52.050Z,50.40
2018-04-10T10:01:21.816Z,50.80
2018-04-10T10:03:50.101Z,50.80
2018-04-10T10:06:18.406Z,50.70
2018-04-10T10:08:46.655Z,50.60
2018-04-10T10:11:14.962Z,50.30
2018-04-10T10:13:43.249Z,50.20
2018-04-10T10:16:11.550Z,50.40
2018-04-10T10:18:40.574Z,49.20
2018-04-10T10:21:08.873Z,49.20
2018-04-10T10:23:37.148Z,49.50
2018-04-10T10:26:05.395Z,49.60
2018-04-10T10:28:33.705Z,49.30
2018-04-10T10:31:01.990Z,48.90
2018-04-10T10:33:30.251Z,49.20
2018-04-10T10:35:58.558Z,48.10
2018-04-10T10:38:26.795Z,48.80
2018-04-10T10:40:55.078Z,48.10
2018-04-10T10:43:23.371Z,47.40
2018-04-10T10:45:51.604Z,47.70
2018-04-10T10:48:19.853Z,46.60
2018-04-10T10:50:48.131Z,47.60
2018-04-10T10:53:16.485Z,47.10
2018-04-10T10:55:44.757Z,47.10
2018-04-10T10:58:13.007Z,46.20
2018-04-10T11:00:41.265Z,45.50
2018-04-10T11:03:10.292Z,46.00
2018-04-10T11:05:38.531Z,46.00
2018-04-10T11:08:07.540Z,45.60
2018-04-10T11:10:35.834Z,45.50
2018-04-10T11:13:04.110Z,44.90
2018-04-10T11:15:32.404Z,45.70
2018-04-10T11:18:00.640Z,44.50
2018-04-10T11:20:28.929Z,44.80
2018-04-10T11:22:57.185Z,45.10
2018-04-10T11:25:26.206Z,42.50
2018-04-10T11:27:54.494Z,42.50
2018-04-10T11:30:22.793Z,41.70
2018-04-10T11:32:51.043Z,42.90
2018-04-10T11:35:19.330Z,43.10
2018-04-10T11:37:47.584Z,44.20
2018-04-10T11:40:15.845Z,42.80
2018-04-10T11:42:44.958Z,42.30
2018-04-10T11:45:13.238Z,42.30
2018-04-10T11:47:41.515Z,43.20
2018-04-10T11:50:10.490Z,43.60
2018-04-10T11:52:39.548Z,42.50
2018-04-10T11:55:07.829Z,42.50
2018-04-10T11:57:36.119Z,43.20
2018-04-10T12:00:04.378Z,43.60
2018-04-10T12:02:32.657Z,42.60
2018-04-10T12:05:00.914Z,40.60
2018-04-10T12:07:29.199Z,41.40
2018-04-10T12:09:57.481Z,42.40
2018-04-10T12:12:25.749Z,41.60
2018-04-10T12:14:53.999Z,42.70
2018-04-10T12:17:22.241Z,42.00
2018-04-10T12:19:51.268Z,40.70
2018-04-10T12:22:19.552Z,40.70
2018-04-10T12:24:47.814Z,39.10
2018-04-10T12:27:16.100Z,40.10
2018-04-10T12:29:44.345Z,40.00
2018-04-10T12:32:13.371Z,39.40
2018-04-10T12:34:41.629Z,39.40
2018-04-10T12:37:10.648Z,38.30
2018-04-10T12:39:38.914Z,38.30
2018-04-10T12:42:07.948Z,38.90
2018-04-10T12:44:36.232Z,38.90
2018-04-10T12:47:04.534Z,39.20
2018-04-10T12:49:32.817Z,39.30
2018-04-10T12:52:01.870Z,38.20
2018-04-10T12:54:30.120Z,38.30
2018-04-10T12:56:58.419Z,37.80
2018-04-10T12:59:26.721Z,37.00
2018-04-10T13:01:55.020Z,35.90
2018-04-10T13:04:23.317Z,37.50
2018-04-10T13:06:51.599Z,38.10
2018-04-10T13:09:19.866Z,36.80
2018-04-10T13:11:48.876Z,35.80
2018-04-10T13:14:17.176Z,35.80
2018-04-10T13:16:45.452Z,33.40
2018-04-10T13:19:13.773Z,35.00
2018-04-10T13:21:42.034Z,35.90
2018-04-10T13:24:10.338Z,35.20
2018-04-10T13:26:39.452Z,35.10
2018-04-10T13:29:08.432Z,35.70
2018-04-10T13:31:37.508Z,34.90
2018-04-10T13:34:05.856Z,34.90
2018-04-10T13:36:34.149Z,36.20
2018-04-10T13:39:02.387Z,35.50
2018-04-10T13:41:30.684Z,36.00
2018-04-10T13:43:58.939Z,36.50
2018-04-10T13:46:27.241Z,36.90
2018-04-10T13:48:55.523Z,34.90
2018-04-10T13:51:23.900Z,35.50
2018-04-10T13:53:52.197Z,32.40
2018-04-10T13:56:20.470Z,34.00
2018-04-10T13:58:48.775Z,33.20
2018-04-10T14:01:17.012Z,34.90
2018-04-10T14:03:45.325Z,34.80
2018-04-10T14:06:14.341Z,36.60
2018-04-10T14:08:42.611Z,36.00
2018-04-10T14:11:11.619Z,35.80
2018-04-10T14:13:40.015Z,35.80
2018-04-10T14:16:08.513Z,36.00
2018-04-10T14:18:36.797Z,36.40
2018-04-10T14:21:05.094Z,35.80
2018-04-10T14:23:33.400Z,35.50
2018-04-10T14:26:02.412Z,34.90
2018-04-10T14:28:30.710Z,34.90
2018-04-10T14:30:58.975Z,35.60
2018-04-10T14:33:27.258Z,35.30
2018-04-10T14:35:55.534Z,35.40
2018-04-10T14:38:23.779Z,35.60
2018-04-10T14:40:52.825Z,38.00
2018-04-10T14:43:21.117Z,38.00
2018-04-10T14:45:49.415Z,39.60
2018-04-10T14:48:17.678Z,39.50
2018-04-10T14:50:45.991Z,40.20
2018-04-10T14:53:14.235Z,41.50
2018-04-10T14:55:42.512Z,42.50
2018-04-10T14:58:10.811Z,43.60
2018-04-10T15:00:40.608Z,44.70
2018-04-10T15:03:08.853Z,44.70
2018-04-10T15:05:37.172Z,44.20
2018-04-10T15:08:05.446Z,44.10
2018-04-10T15:10:33.674Z,44.00
2018-04-10T15:13:01.974Z,43.50
2018-04-10T15:15:30.213Z,43.40
2018-04-10T15:17:58.501Z,42.90
2018-04-10T15:20:26.773Z,42.50
2018-04-10T15:22:55.082Z,42.20
2018-04-10T15:25:23.353Z,42.30
2018-04-10T15:27:51.642Z,42.30
2018-04-10T15:30:19.884Z,42.10
2018-04-10T15:32:48.198Z,42.20
2018-04-10T15:35:16.481Z,42.00
2018-04-10T15:37:44.789Z,41.90
2018-04-10T15:40:13.867Z,47.40
2018-04-10T15:42:42.114Z,47.30
2018-04-10T15:45:10.365Z,47.70
2018-04-10T15:47:38.675Z,47.50
2018-04-10T15:50:06.985Z,49.10
2018-04-10T15:52:35.994Z,49.90
2018-04-10T15:55:04.261Z,49.80
2018-04-10T15:57:33.325Z,51.00
2018-04-10T16:00:01.586Z,50.90
2018-04-10T16:02:29.854Z,50.20
2018-04-10T16:04:58.147Z,50.00
2018-04-10T16:07:26.445Z,47.60
2018-04-10T16:09:55.519Z,46.70
2018-04-10T16:12:23.822Z,46.60
2018-04-10T16:14:52.069Z,47.50
2018-04-10T16:17:20.347Z,46.70
2018-04-10T16:19:48.630Z,46.50
2018-04-10T16:22:16.872Z,46.20
2018-04-10T16:24:45.168Z,46.50
2018-04-10T16:27:13.458Z,46.40
2018-04-10T16:29:41.768Z,47.50
2018-04-10T16:32:10.073Z,48.00
2018-04-10T16:34:38.341Z,47.70
2018-04-10T16:37:07.382Z,47.70
2018-04-10T16:39:35.679Z,47.60
2018-04-10T16:42:03.972Z,46.50
2018-04-10T16:44:32.269Z,48.00
2018-04-10T16:47:01.349Z,48.40
2018-04-10T16:49:29.609Z,48.40
2018-04-10T16:51:57.884Z,49.30
2018-04-10T16:54:26.177Z,50.60
2018-04-10T16:56:54.498Z,50.10
2018-04-10T16:59:22.782Z,50.80
2018-04-10T17:01:51.081Z,51.40
2018-04-10T17:04:19.396Z,52.10
2018-04-10T17:06:48.446Z,52.50
2018-04-10T17:09:16.705Z,52.00
2018-04-10T17:11:44.970Z,52.60
2018-04-10T17:14:13.269Z,51.60
2018-04-10T17:16:41.550Z,52.30
2018-04-10T17:19:09.833Z,52.60
2018-04-10T17:21:38.873Z,51.70
2018-04-10T17:24:07.106Z,51.70
2018-04-10T17:26:35.405Z,52.00
2018-04-10T17:29:05.200Z,52.40
2018-04-10T17:31:33.460Z,52.30
2018-04-10T17:34:01.758Z,52.00
2018-04-10T17:36:30.061Z,51.70
2018-04-10T17:38:58.316Z,51.80
2018-04-10T17:41:26.566Z,52.00
2018-04-10T17:43:54.868Z,51.00
2018-04-10T17:46:23.110Z,51.70
2018-04-10T17:48:51.415Z,51.50
2018-04-10T17:51:19.689Z,49.90
2018-04-10T17:53:47.958Z,50.60
2018-04-10T17:56:16.195Z,50.40
2018-04-10T17:58:45.266Z,49.50
2018-04-10T18:01:14.438Z,49.50
2018-04-10T18:03:43.251Z,48.60
2018-04-10T18:06:11.551Z,49.10
2018-04-10T18:08:40.559Z,48.50
2018-04-10T18:11:08.882Z,48.50
2018-04-10T18:13:37.158Z,48.60
2018-04-10T18:16:05.410Z,48.70
2018-04-10T18:18:34.808Z,49.80
2018-04-10T18:21:03.090Z,50.50
2018-04-10T18:23:31.409Z,50.20
2018-04-10T18:25:59.726Z,51.80
2018-04-10T18:28:28.828Z,50.50
2018-04-10T18:30:57.716Z,50.30
2018-04-10T18:33:26.016Z,51.60
2018-04-10T18:35:54.266Z,49.80
2018-04-10T18:38:23.318Z,51.50
2018-04-10T18:40:51.586Z,51.40
2018-04-10T18:43:19.819Z,50.20
2018-04-10T18:45:48.162Z,50.50
2018-04-10T18:48:17.912Z,51.30
2018-04-10T18:50:46.236Z,51.20
2018-04-10T18:53:14.477Z,50.70
2018-04-10T18:55:42.798Z,50.90
2018-04-10T18:58:11.073Z,50.90
2018-04-10T19:00:39.370Z,51.20
2018-04-10T19:03:07.629Z,50.30
2018-04-10T19:05:37.470Z,50.40
2018-04-10T19:08:06.502Z,50.40
2018-04-10T19:10:34.814Z,52.10
2018-04-10T19:13:03.121Z,51.10
2018-04-10T19:15:32.151Z,50.70
2018-04-10T19:18:00.443Z,50.60
2018-04-10T19:20:28.744Z,50.00
2018-04-10T19:22:57.027Z,52.10
2018-04-10T19:25:26.080Z,52.60
2018-04-10T19:27:54.390Z,52.70
2018-04-10T19:30:22.648Z,53.60
2018-04-10T19:32:50.938Z,53.80
2018-04-10T19:35:19.199Z,54.00
2018-04-10T19:37:47.497Z,53.90
2018-04-10T19:40:15.806Z,54.20
2018-04-10T19:42:44.833Z,54.40
2018-04-10T19:45:13.136Z,54.40
2018-04-10T19:47:41.382Z,55.40
2018-04-10T19:50:09.663Z,55.00
2018-04-10T19:52:37.921Z,54.90
2018-04-10T19:55:06.167Z,54.90
2018-04-10T19:57:35.932Z,54.20
2018-04-10T20:00:04.188Z,54.20
2018-04-10T20:02:32.600Z,55.50
2018-04-10T20:05:01.602Z,55.30
2018-04-10T20:07:29.920Z,55.40
2018-04-10T20:09:58.967Z,54.40
2018-04-10T20:12:27.227Z,54.30
2018-04-10T20:14:55.474Z,53.80
2018-04-10T20:17:24.534Z,53.90
2018-04-10T20:19:52.762Z,53.90
2018-04-10T20:22:21.083Z,53.70
2018-04-10T20:24:49.365Z,53.50
2018-04-10T20:27:17.684Z,54.30
2018-04-10T20:29:46.709Z,54.80
2018-04-10T20:32:14.986Z,54.80
2018-04-10T20:34:43.283Z,54.20
2018-04-10T20:37:11.581Z,53.80
2018-04-10T20:39:39.878Z,54.90
2018-04-10T20:42:09.034Z,54.90
2018-04-10T20:44:37.338Z,54.30
2018-04-10T20:47:05.617Z,54.30
2018-04-10T20:49:33.941Z,55.20
2018-04-10T20:52:02.249Z,54.80
2018-04-10T20:54:30.567Z,55.00
2018-04-10T20:56:59.571Z,56.90
2018-04-10T20:59:28.646Z,55.30
2018-04-10T21:01:56.909Z,55.40
2018-04-10T21:04:25.187Z,55.60
2018-04-10T21:06:53.481Z,56.20
2018-04-10T21:09:21.794Z,55.30
2018-04-10T21:11:50.049Z,56.50
2018-04-10T21:14:19.111Z,55.30
2018-04-10T21:16:47.425Z,55.20
2018-04-10T21:19:15.630Z,56.00
2018-04-10T21:21:43.901Z,55.60
2018-04-10T21:24:12.176Z,55.20
2018-04-10T21:26:40.441Z,54.50
2018-04-10T21:29:08.700Z,55.20
2018-04-10T21:31:37.772Z,56.80
2018-04-10T21:34:06.003Z,56.70
2018-04-10T21:36:34.271Z,55.80
2018-04-10T21:39:02.518Z,55.90
2018-04-10T21:41:30.786Z,55.30
2018-04-10T21:43:59.036Z,55.60
2018-04-10T21:46:27.341Z,55.80
2018-04-10T21:48:55.574Z,57.40
2018-04-10T21:51:23.845Z,56.40
2018-04-10T21:53:52.092Z,57.00
2018-04-10T21:56:21.159Z,56.00
2018-04-10T21:58:49.414Z,56.10
2018-04-10T22:01:17.675Z,55.70
2018-04-10T22:03:45.933Z,55.70
2018-04-10T22:06:14.182Z,55.50
2018-04-10T22:08:43.255Z,58.30
2018-04-10T22:11:11.553Z,57.60
2018-04-10T22:13:39.824Z,54.60
2018-04-10T22:16:08.064Z,54.20
2018-04-10T22:18:36.369Z,56.80
2018-04-10T22:21:04.641Z,57.10
2018-04-10T22:23:32.895Z,57.60
2018-04-10T22:26:01.867Z,57.00
2018-04-10T22:28:30.142Z,55.80
2018-04-10T22:30:58.387Z,57.70
2018-04-10T22:33:26.688Z,56.10
2018-04-10T22:35:54.903Z,54.60
2018-04-10T22:38:23.198Z,55.50
2018-04-10T22:40:52.229Z,55.00
2018-04-10T22:43:20.519Z,54.80
2018-04-10T22:45:48.764Z,55.30
2018-04-10T22:48:17.047Z,57.30
2018-04-10T22:50:45.400Z,58.40
2018-04-10T22:53:13.658Z,59.10
2018-04-10T22:55:41.942Z,59.10
2018-04-10T22:58:10.230Z,58.20
2018-04-10T23:00:49.998Z,55.50
2018-04-10T23:03:18.995Z,55.50
2018-04-10T23:05:47.310Z,55.50
2018-04-10T23:08:15.551Z,56.80
2018-04-10T23:10:43.855Z,56.20
2018-04-10T23:13:12.135Z,59.20
2018-04-10T23:15:40.443Z,59.30
2018-04-10T23:18:08.724Z,58.00
2018-04-10T23:20:36.996Z,58.30
2018-04-10T23:23:05.287Z,56.70
2018-04-10T23:25:33.567Z,57.00
2018-04-10T23:28:01.813Z,57.80
2018-04-10T23:30:30.058Z,60.80
2018-04-10T23:32:59.079Z,57.60
2018-04-10T23:35:27.368Z,57.60
2018-04-10T23:37:55.620Z,56.80
2018-04-10T23:40:24.680Z,60.10
2018-04-10T23:42:52.977Z,60.10
2018-04-10T23:45:21.214Z,61.10
2018-04-10T23:47:49.516Z,58.90
2018-04-10T23:50:18.632Z,61.30
2018-04-10T23:52:47.702Z,60.30
2018-04-10T23:55:15.977Z,60.40
2018-04-10T23:57:44.257Z,61.20
